sensor_id;sensor_type;location;lat;lon;timestamp;temperature;humidity
24645;DHT22;12780;45.502;9.146;2022-10-16T00:01:09;19.10;99.90
24645;DHT22;12780;45.502;9.146;2022-10-16T00:03:36;19.10;99.90
24645;DHT22;12780;45.502;9.146;2022-10-16T00:06:03;19.10;99.90
24645;DHT22;12780;45.502;9.146;2022-10-16T00:08:29;19.00;99.90
24645;DHT22;12780;45.502;9.146;2022-10-16T00:11:06;19.00;99.90
24645;DHT22;12780;45.502;9.146;2022-10-16T00:13:34;19.00;99.90
24645;DHT22;12780;45.502;9.146;2022-10-16T00:16:00;19.10;99.90
24645;DHT22;12780;45.502;9.146;2022-10-16T00:18:28;19.10;99.90
24645;DHT22;12780;45.502;9.146;2022-10-16T00:20:54;19.10;99.90
24645;DHT22;12780;45.502;9.146;2022-10-16T00:23:20;19.20;99.90
24645;DHT22;12780;45.502;9.146;2022-10-16T00:25:55;19.20;99.90
24645;DHT22;12780;45.502;9.146;2022-10-16T00:28:21;19.10;99.90
24645;DHT22;12780;45.502;9.146;2022-10-16T00:30:46;19.10;99.90
24645;DHT22;12780;45.502;9.146;2022-10-16T00:33:12;19.10;99.90
24645;DHT22;12780;45.502;9.146;2022-10-16T00:35:37;19.00;99.90
24645;DHT22;12780;45.502;9.146;2022-10-16T00:38:03;19.00;99.90
24645;DHT22;12780;45.502;9.146;2022-10-16T00:40:28;19.00;99.90
24645;DHT22;12780;45.502;9.146;2022-10-16T00:42:54;19.00;99.90
24645;DHT22;12780;45.502;9.146;2022-10-16T00:45:20;19.00;99.90
24645;DHT22;12780;45.502;9.146;2022-10-16T00:47:47;18.90;99.90
24645;DHT22;12780;45.502;9.146;2022-10-16T00:50:26;19.00;99.90
24645;DHT22;12780;45.502;9.146;2022-10-16T00:52:53;19.00;99.90
24645;DHT22;12780;45.502;9.146;2022-10-16T00:55:19;19.00;99.90
24645;DHT22;12780;45.502;9.146;2022-10-16T00:57:46;19.00;99.90
24645;DHT22;12780;45.502;9.146;2022-10-16T01:00:15;19.10;99.90
24645;DHT22;12780;45.502;9.146;2022-10-16T01:02:41;19.10;99.90
24645;DHT22;12780;45.502;9.146;2022-10-16T01:05:07;19.00;99.90
24645;DHT22;12780;45.502;9.146;2022-10-16T01:12:58;18.90;99.90
24645;DHT22;12780;45.502;9.146;2022-10-16T01:15:25;18.80;99.90
24645;DHT22;12780;45.502;9.146;2022-10-16T01:18:02;18.80;99.90
24645;DHT22;12780;45.502;9.146;2022-10-16T01:20:35;18.80;99.90
24645;DHT22;12780;45.502;9.146;2022-10-16T01:26:31;18.80;99.90
24645;DHT22;12780;45.502;9.146;2022-10-16T01:29:07;18.80;99.90
24645;DHT22;12780;45.502;9.146;2022-10-16T01:31:36;18.90;99.90
24645;DHT22;12780;45.502;9.146;2022-10-16T01:34:09;18.90;99.90
24645;DHT22;12780;45.502;9.146;2022-10-16T01:36:41;18.80;99.90
24645;DHT22;12780;45.502;9.146;2022-10-16T01:39:10;18.80;99.90
24645;DHT22;12780;45.502;9.146;2022-10-16T01:41:39;18.80;99.90
24645;DHT22;12780;45.502;9.146;2022-10-16T01:44:14;18.80;99.90
24645;DHT22;12780;45.502;9.146;2022-10-16T01:46:45;18.90;99.90
24645;DHT22;12780;45.502;9.146;2022-10-16T01:49:12;18.80;99.90
24645;DHT22;12780;45.502;9.146;2022-10-16T01:51:38;19.00;99.90
24645;DHT22;12780;45.502;9.146;2022-10-16T01:54:06;18.90;99.90
24645;DHT22;12780;45.502;9.146;2022-10-16T01:56:34;18.90;99.90
24645;DHT22;12780;45.502;9.146;2022-10-16T01:59:16;19.00;99.90
24645;DHT22;12780;45.502;9.146;2022-10-16T02:01:50;19.00;99.90
24645;DHT22;12780;45.502;9.146;2022-10-16T02:04:21;19.00;99.90
24645;DHT22;12780;45.502;9.146;2022-10-16T02:06:48;19.00;99.90
24645;DHT22;12780;45.502;9.146;2022-10-16T02:09:13;19.10;99.90
24645;DHT22;12780;45.502;9.146;2022-10-16T02:11:42;19.10;99.90
24645;DHT22;12780;45.502;9.146;2022-10-16T02:14:08;19.00;99.90
24645;DHT22;12780;45.502;9.146;2022-10-16T02:16:42;19.10;99.90
24645;DHT22;12780;45.502;9.146;2022-10-16T02:19:08;19.00;99.90
24645;DHT22;12780;45.502;9.146;2022-10-16T02:21:40;19.20;99.90
24645;DHT22;12780;45.502;9.146;2022-10-16T02:24:19;19.10;99.90
24645;DHT22;12780;45.502;9.146;2022-10-16T02:27:00;19.20;99.90
24645;DHT22;12780;45.502;9.146;2022-10-16T02:29:27;19.20;99.90
24645;DHT22;12780;45.502;9.146;2022-10-16T02:32:02;19.10;99.90
24645;DHT22;12780;45.502;9.146;2022-10-16T02:34:32;19.10;99.90
24645;DHT22;12780;45.502;9.146;2022-10-16T02:36:58;19.20;99.90
24645;DHT22;12780;45.502;9.146;2022-10-16T02:39:27;19.20;99.90
24645;DHT22;12780;45.502;9.146;2022-10-16T02:41:53;19.20;99.90
24645;DHT22;12780;45.502;9.146;2022-10-16T02:44:19;19.20;99.90
24645;DHT22;12780;45.502;9.146;2022-10-16T02:46:45;19.20;99.90
24645;DHT22;12780;45.502;9.146;2022-10-16T02:49:10;19.30;99.90
24645;DHT22;12780;45.502;9.146;2022-10-16T02:51:36;19.20;99.90
24645;DHT22;12780;45.502;9.146;2022-10-16T02:54:02;19.20;99.90
24645;DHT22;12780;45.502;9.146;2022-10-16T02:56:28;19.20;99.90
24645;DHT22;12780;45.502;9.146;2022-10-16T02:58:54;19.10;99.90
24645;DHT22;12780;45.502;9.146;2022-10-16T03:01:20;19.10;99.90
24645;DHT22;12780;45.502;9.146;2022-10-16T03:03:46;19.10;99.90
24645;DHT22;12780;45.502;9.146;2022-10-16T03:06:11;19.20;99.90
24645;DHT22;12780;45.502;9.146;2022-10-16T03:08:37;19.30;99.90
24645;DHT22;12780;45.502;9.146;2022-10-16T03:11:02;19.20;99.90
24645;DHT22;12780;45.502;9.146;2022-10-16T03:13:28;19.20;99.90
24645;DHT22;12780;45.502;9.146;2022-10-16T03:15:53;19.20;99.90
24645;DHT22;12780;45.502;9.146;2022-10-16T03:18:19;19.20;99.90
24645;DHT22;12780;45.502;9.146;2022-10-16T03:20:45;19.20;99.90
24645;DHT22;12780;45.502;9.146;2022-10-16T03:23:11;19.20;99.90
24645;DHT22;12780;45.502;9.146;2022-10-16T03:25:36;19.20;99.90
24645;DHT22;12780;45.502;9.146;2022-10-16T03:28:02;19.10;99.90
24645;DHT22;12780;45.502;9.146;2022-10-16T03:30:28;19.20;99.90
24645;DHT22;12780;45.502;9.146;2022-10-16T03:32:54;19.10;99.90
24645;DHT22;12780;45.502;9.146;2022-10-16T03:35:23;19.10;99.90
24645;DHT22;12780;45.502;9.146;2022-10-16T03:37:50;19.10;99.90
24645;DHT22;12780;45.502;9.146;2022-10-16T03:40:16;19.00;99.90
24645;DHT22;12780;45.502;9.146;2022-10-16T03:42:43;19.00;99.90
24645;DHT22;12780;45.502;9.146;2022-10-16T03:45:09;18.90;99.90
24645;DHT22;12780;45.502;9.146;2022-10-16T03:47:35;18.90;99.90
24645;DHT22;12780;45.502;9.146;2022-10-16T03:50:00;18.90;99.90
24645;DHT22;12780;45.502;9.146;2022-10-16T03:52:27;19.00;99.90
24645;DHT22;12780;45.502;9.146;2022-10-16T03:54:52;19.00;99.90
24645;DHT22;12780;45.502;9.146;2022-10-16T03:57:18;19.00;99.90
24645;DHT22;12780;45.502;9.146;2022-10-16T03:59:44;19.10;99.90
24645;DHT22;12780;45.502;9.146;2022-10-16T04:02:09;19.00;99.90
24645;DHT22;12780;45.502;9.146;2022-10-16T04:04:35;19.10;99.90
24645;DHT22;12780;45.502;9.146;2022-10-16T04:07:01;19.10;99.90
24645;DHT22;12780;45.502;9.146;2022-10-16T04:09:26;19.10;99.90
24645;DHT22;12780;45.502;9.146;2022-10-16T04:11:52;19.00;99.90
24645;DHT22;12780;45.502;9.146;2022-10-16T04:14:18;19.00;99.90
24645;DHT22;12780;45.502;9.146;2022-10-16T04:16:43;19.00;99.90
24645;DHT22;12780;45.502;9.146;2022-10-16T04:19:10;19.00;99.90
24645;DHT22;12780;45.502;9.146;2022-10-16T04:21:35;19.00;99.90
24645;DHT22;12780;45.502;9.146;2022-10-16T04:24:01;19.00;99.90
24645;DHT22;12780;45.502;9.146;2022-10-16T04:26:27;18.90;99.90
24645;DHT22;12780;45.502;9.146;2022-10-16T04:28:52;18.90;99.90
24645;DHT22;12780;45.502;9.146;2022-10-16T04:31:18;18.80;99.90
24645;DHT22;12780;45.502;9.146;2022-10-16T04:33:44;19.00;99.90
24645;DHT22;12780;45.502;9.146;2022-10-16T04:36:09;18.90;99.90
24645;DHT22;12780;45.502;9.146;2022-10-16T04:38:35;18.90;99.90
24645;DHT22;12780;45.502;9.146;2022-10-16T04:41:03;18.90;99.90
24645;DHT22;12780;45.502;9.146;2022-10-16T04:43:28;18.90;99.90
24645;DHT22;12780;45.502;9.146;2022-10-16T04:45:54;18.90;99.90
24645;DHT22;12780;45.502;9.146;2022-10-16T04:48:20;19.00;99.90
24645;DHT22;12780;45.502;9.146;2022-10-16T04:50:46;19.00;99.90
24645;DHT22;12780;45.502;9.146;2022-10-16T04:53:11;18.90;99.90
24645;DHT22;12780;45.502;9.146;2022-10-16T04:55:37;18.90;99.90
24645;DHT22;12780;45.502;9.146;2022-10-16T04:58:04;19.00;99.90
24645;DHT22;12780;45.502;9.146;2022-10-16T05:00:30;19.00;99.90
24645;DHT22;12780;45.502;9.146;2022-10-16T05:02:55;19.00;99.90
24645;DHT22;12780;45.502;9.146;2022-10-16T05:05:21;19.00;99.90
24645;DHT22;12780;45.502;9.146;2022-10-16T05:07:48;19.00;99.90
24645;DHT22;12780;45.502;9.146;2022-10-16T05:10:15;19.00;99.90
24645;DHT22;12780;45.502;9.146;2022-10-16T05:12:40;19.00;99.90
24645;DHT22;12780;45.502;9.146;2022-10-16T05:15:06;19.00;99.90
24645;DHT22;12780;45.502;9.146;2022-10-16T05:17:32;19.00;99.90
24645;DHT22;12780;45.502;9.146;2022-10-16T05:19:58;19.00;99.90
24645;DHT22;12780;45.502;9.146;2022-10-16T05:22:23;18.90;99.90
24645;DHT22;12780;45.502;9.146;2022-10-16T05:24:49;19.00;99.90
24645;DHT22;12780;45.502;9.146;2022-10-16T05:27:14;19.00;99.90
24645;DHT22;12780;45.502;9.146;2022-10-16T05:29:48;19.00;99.90
24645;DHT22;12780;45.502;9.146;2022-10-16T05:32:15;19.00;99.90
24645;DHT22;12780;45.502;9.146;2022-10-16T05:34:41;19.00;99.90
24645;DHT22;12780;45.502;9.146;2022-10-16T05:37:06;19.00;99.90
24645;DHT22;12780;45.502;9.146;2022-10-16T05:39:32;19.00;99.90
24645;DHT22;12780;45.502;9.146;2022-10-16T05:41:58;19.00;99.90
24645;DHT22;12780;45.502;9.146;2022-10-16T05:44:23;19.00;99.90
24645;DHT22;12780;45.502;9.146;2022-10-16T05:46:49;19.00;99.90
24645;DHT22;12780;45.502;9.146;2022-10-16T05:49:15;19.00;99.90
24645;DHT22;12780;45.502;9.146;2022-10-16T05:51:40;19.00;99.90
24645;DHT22;12780;45.502;9.146;2022-10-16T05:54:07;19.00;99.90
24645;DHT22;12780;45.502;9.146;2022-10-16T05:56:33;19.00;99.90
24645;DHT22;12780;45.502;9.146;2022-10-16T05:58:58;18.90;99.90
24645;DHT22;12780;45.502;9.146;2022-10-16T06:01:24;19.00;99.90
24645;DHT22;12780;45.502;9.146;2022-10-16T06:03:51;19.00;99.90
24645;DHT22;12780;45.502;9.146;2022-10-16T06:06:19;19.00;99.90
24645;DHT22;12780;45.502;9.146;2022-10-16T06:08:47;19.00;99.90
24645;DHT22;12780;45.502;9.146;2022-10-16T06:11:16;19.00;99.90
24645;DHT22;12780;45.502;9.146;2022-10-16T06:13:42;19.00;99.90
24645;DHT22;12780;45.502;9.146;2022-10-16T06:16:09;18.90;99.90
24645;DHT22;12780;45.502;9.146;2022-10-16T06:18:35;18.90;99.90
24645;DHT22;12780;45.502;9.146;2022-10-16T06:21:07;18.80;99.90
24645;DHT22;12780;45.502;9.146;2022-10-16T06:23:33;18.80;99.90
24645;DHT22;12780;45.502;9.146;2022-10-16T06:26:09;18.80;99.90
24645;DHT22;12780;45.502;9.146;2022-10-16T06:28:35;18.80;99.90
24645;DHT22;12780;45.502;9.146;2022-10-16T06:31:03;18.80;99.90
24645;DHT22;12780;45.502;9.146;2022-10-16T06:33:29;18.80;99.90
24645;DHT22;12780;45.502;9.146;2022-10-16T06:36:01;18.90;99.90
24645;DHT22;12780;45.502;9.146;2022-10-16T06:38:28;18.90;99.90
24645;DHT22;12780;45.502;9.146;2022-10-16T06:40:53;18.80;99.90
24645;DHT22;12780;45.502;9.146;2022-10-16T06:43:19;18.80;99.90
24645;DHT22;12780;45.502;9.146;2022-10-16T06:45:53;18.80;99.90
24645;DHT22;12780;45.502;9.146;2022-10-16T06:48:19;18.80;99.90
24645;DHT22;12780;45.502;9.146;2022-10-16T06:50:56;18.80;99.90
24645;DHT22;12780;45.502;9.146;2022-10-16T06:53:22;18.90;99.90
24645;DHT22;12780;45.502;9.146;2022-10-16T06:55:48;18.90;99.90
24645;DHT22;12780;45.502;9.146;2022-10-16T06:58:13;18.90;99.90
24645;DHT22;12780;45.502;9.146;2022-10-16T07:00:39;18.90;99.90
24645;DHT22;12780;45.502;9.146;2022-10-16T07:03:04;18.80;99.90
24645;DHT22;12780;45.502;9.146;2022-10-16T07:05:30;18.80;99.90
24645;DHT22;12780;45.502;9.146;2022-10-16T07:07:56;18.80;99.90
24645;DHT22;12780;45.502;9.146;2022-10-16T07:10:21;18.70;99.90
24645;DHT22;12780;45.502;9.146;2022-10-16T07:12:49;18.80;99.90
24645;DHT22;12780;45.502;9.146;2022-10-16T07:15:15;18.80;99.90
24645;DHT22;12780;45.502;9.146;2022-10-16T07:17:40;18.80;99.90
24645;DHT22;12780;45.502;9.146;2022-10-16T07:20:06;18.80;99.90
24645;DHT22;12780;45.502;9.146;2022-10-16T07:22:32;18.90;99.90
24645;DHT22;12780;45.502;9.146;2022-10-16T07:24:58;18.90;99.90
24645;DHT22;12780;45.502;9.146;2022-10-16T07:27:24;18.90;99.90
24645;DHT22;12780;45.502;9.146;2022-10-16T07:29:50;18.80;99.90
24645;DHT22;12780;45.502;9.146;2022-10-16T07:32:15;19.00;99.90
24645;DHT22;12780;45.502;9.146;2022-10-16T07:34:41;18.90;99.90
24645;DHT22;12780;45.502;9.146;2022-10-16T07:37:07;19.00;99.90
24645;DHT22;12780;45.502;9.146;2022-10-16T07:39:33;19.10;99.90
24645;DHT22;12780;45.502;9.146;2022-10-16T07:41:59;19.20;99.90
24645;DHT22;12780;45.502;9.146;2022-10-16T07:44:24;19.30;99.90
24645;DHT22;12780;45.502;9.146;2022-10-16T07:46:50;19.30;99.90
24645;DHT22;12780;45.502;9.146;2022-10-16T07:49:15;19.40;99.90
24645;DHT22;12780;45.502;9.146;2022-10-16T07:51:41;19.40;99.90
24645;DHT22;12780;45.502;9.146;2022-10-16T07:54:09;19.50;99.90
24645;DHT22;12780;45.502;9.146;2022-10-16T07:56:34;19.50;99.90
24645;DHT22;12780;45.502;9.146;2022-10-16T07:59:00;19.50;99.90
24645;DHT22;12780;45.502;9.146;2022-10-16T08:01:26;19.50;99.90
24645;DHT22;12780;45.502;9.146;2022-10-16T08:03:52;19.50;99.90
24645;DHT22;12780;45.502;9.146;2022-10-16T08:06:19;19.50;99.90
24645;DHT22;12780;45.502;9.146;2022-10-16T08:08:45;19.40;99.90
24645;DHT22;12780;45.502;9.146;2022-10-16T08:11:11;19.40;99.90
24645;DHT22;12780;45.502;9.146;2022-10-16T08:13:36;19.40;99.90
24645;DHT22;12780;45.502;9.146;2022-10-16T08:16:02;19.40;99.90
24645;DHT22;12780;45.502;9.146;2022-10-16T08:18:34;19.40;99.90
24645;DHT22;12780;45.502;9.146;2022-10-16T08:21:00;19.40;99.90
24645;DHT22;12780;45.502;9.146;2022-10-16T08:23:26;19.40;99.90
24645;DHT22;12780;45.502;9.146;2022-10-16T08:25:55;19.40;99.90
24645;DHT22;12780;45.502;9.146;2022-10-16T08:28:22;19.50;99.90
24645;DHT22;12780;45.502;9.146;2022-10-16T08:30:48;19.50;99.90
24645;DHT22;12780;45.502;9.146;2022-10-16T08:33:14;19.50;99.90
24645;DHT22;12780;45.502;9.146;2022-10-16T08:35:40;19.60;99.90
24645;DHT22;12780;45.502;9.146;2022-10-16T08:38:06;19.70;99.90
24645;DHT22;12780;45.502;9.146;2022-10-16T08:40:34;19.70;99.90
24645;DHT22;12780;45.502;9.146;2022-10-16T08:45:56;19.80;99.90
24645;DHT22;12780;45.502;9.146;2022-10-16T08:50:56;19.90;99.90
24645;DHT22;12780;45.502;9.146;2022-10-16T08:53:30;19.90;99.90
24645;DHT22;12780;45.502;9.146;2022-10-16T08:55:56;19.90;99.90
24645;DHT22;12780;45.502;9.146;2022-10-16T08:58:28;19.90;99.90
24645;DHT22;12780;45.502;9.146;2022-10-16T09:00:56;20.00;99.90
24645;DHT22;12780;45.502;9.146;2022-10-16T09:16:34;20.40;99.90
24645;DHT22;12780;45.502;9.146;2022-10-16T09:19:13;20.40;99.90
24645;DHT22;12780;45.502;9.146;2022-10-16T09:21:43;20.40;99.90
24645;DHT22;12780;45.502;9.146;2022-10-16T09:24:20;20.50;99.90
24645;DHT22;12780;45.502;9.146;2022-10-16T09:26:47;20.50;99.90
24645;DHT22;12780;45.502;9.146;2022-10-16T09:29:17;20.60;99.90
24645;DHT22;12780;45.502;9.146;2022-10-16T09:31:45;20.70;99.90
24645;DHT22;12780;45.502;9.146;2022-10-16T09:34:30;20.80;99.90
24645;DHT22;12780;45.502;9.146;2022-10-16T09:36:57;20.90;99.90
24645;DHT22;12780;45.502;9.146;2022-10-16T09:39:24;21.00;99.90
24645;DHT22;12780;45.502;9.146;2022-10-16T09:41:50;21.00;99.90
24645;DHT22;12780;45.502;9.146;2022-10-16T09:44:28;21.10;99.90
24645;DHT22;12780;45.502;9.146;2022-10-16T09:47:15;21.10;99.90
24645;DHT22;12780;45.502;9.146;2022-10-16T09:50:05;21.20;99.90
24645;DHT22;12780;45.502;9.146;2022-10-16T09:52:32;21.20;99.90
24645;DHT22;12780;45.502;9.146;2022-10-16T09:55:12;21.20;99.90
24645;DHT22;12780;45.502;9.146;2022-10-16T09:57:49;21.30;99.90
24645;DHT22;12780;45.502;9.146;2022-10-16T10:00:20;21.40;99.90
24645;DHT22;12780;45.502;9.146;2022-10-16T10:02:46;21.40;99.90
24645;DHT22;12780;45.502;9.146;2022-10-16T10:05:26;21.40;99.90
24645;DHT22;12780;45.502;9.146;2022-10-16T10:08:01;21.40;99.90
24645;DHT22;12780;45.502;9.146;2022-10-16T10:10:33;21.50;99.90
24645;DHT22;12780;45.502;9.146;2022-10-16T10:12:58;21.60;99.90
24645;DHT22;12780;45.502;9.146;2022-10-16T10:15:25;21.70;99.90
24645;DHT22;12780;45.502;9.146;2022-10-16T10:17:55;21.80;99.90
24645;DHT22;12780;45.502;9.146;2022-10-16T10:20:32;21.90;99.90
24645;DHT22;12780;45.502;9.146;2022-10-16T10:23:00;21.90;99.90
24645;DHT22;12780;45.502;9.146;2022-10-16T10:25:34;22.00;99.90
24645;DHT22;12780;45.502;9.146;2022-10-16T10:28:21;22.00;99.90
24645;DHT22;12780;45.502;9.146;2022-10-16T10:31:06;22.10;99.90
24645;DHT22;12780;45.502;9.146;2022-10-16T10:36:40;22.30;99.90
24645;DHT22;12780;45.502;9.146;2022-10-16T10:39:17;22.40;99.90
24645;DHT22;12780;45.502;9.146;2022-10-16T10:44:57;22.50;99.90
24645;DHT22;12780;45.502;9.146;2022-10-16T10:50:31;22.50;99.90
24645;DHT22;12780;45.502;9.146;2022-10-16T10:53:02;22.50;99.90
24645;DHT22;12780;45.502;9.146;2022-10-16T11:01:07;22.40;99.90
24645;DHT22;12780;45.502;9.146;2022-10-16T11:04:15;22.40;99.90
24645;DHT22;12780;45.502;9.146;2022-10-16T11:06:55;22.40;99.90
24645;DHT22;12780;45.502;9.146;2022-10-16T11:09:26;22.50;99.90
24645;DHT22;12780;45.502;9.146;2022-10-16T11:12:02;22.40;99.90
24645;DHT22;12780;45.502;9.146;2022-10-16T11:14:50;22.50;99.90
24645;DHT22;12780;45.502;9.146;2022-10-16T11:17:23;22.60;99.90
24645;DHT22;12780;45.502;9.146;2022-10-16T11:20:03;22.70;99.90
24645;DHT22;12780;45.502;9.146;2022-10-16T11:22:54;22.70;99.90
24645;DHT22;12780;45.502;9.146;2022-10-16T11:25:26;22.80;99.90
24645;DHT22;12780;45.502;9.146;2022-10-16T11:28:16;22.80;99.90
24645;DHT22;12780;45.502;9.146;2022-10-16T11:31:02;22.80;99.90
24645;DHT22;12780;45.502;9.146;2022-10-16T11:36:31;23.10;99.90
24645;DHT22;12780;45.502;9.146;2022-10-16T11:39:00;23.20;99.90
24645;DHT22;12780;45.502;9.146;2022-10-16T11:41:37;23.20;99.90
24645;DHT22;12780;45.502;9.146;2022-10-16T11:44:35;23.20;99.90
24645;DHT22;12780;45.502;9.146;2022-10-16T11:49:32;23.10;99.90
24645;DHT22;12780;45.502;9.146;2022-10-16T11:52:31;23.20;99.90
24645;DHT22;12780;45.502;9.146;2022-10-16T11:57:38;23.40;99.90
24645;DHT22;12780;45.502;9.146;2022-10-16T12:02:50;23.60;99.90
24645;DHT22;12780;45.502;9.146;2022-10-16T12:08:11;23.60;99.90
24645;DHT22;12780;45.502;9.146;2022-10-16T12:10:41;23.60;99.90
24645;DHT22;12780;45.502;9.146;2022-10-16T12:18:41;23.50;99.90
24645;DHT22;12780;45.502;9.146;2022-10-16T12:21:08;23.40;99.90
24645;DHT22;12780;45.502;9.146;2022-10-16T12:23:47;23.40;99.90
24645;DHT22;12780;45.502;9.146;2022-10-16T12:26:14;23.40;99.90
24645;DHT22;12780;45.502;9.146;2022-10-16T12:28:49;23.40;99.90
24645;DHT22;12780;45.502;9.146;2022-10-16T12:31:16;23.40;99.90
24645;DHT22;12780;45.502;9.146;2022-10-16T12:34:22;23.50;99.90
24645;DHT22;12780;45.502;9.146;2022-10-16T12:36:49;23.40;99.90
24645;DHT22;12780;45.502;9.146;2022-10-16T12:39:22;23.40;99.90
24645;DHT22;12780;45.502;9.146;2022-10-16T12:42:00;23.40;99.90
24645;DHT22;12780;45.502;9.146;2022-10-16T12:44:32;23.20;99.90
24645;DHT22;12780;45.502;9.146;2022-10-16T12:46:58;23.30;99.90
24645;DHT22;12780;45.502;9.146;2022-10-16T12:49:47;23.30;99.90
24645;DHT22;12780;45.502;9.146;2022-10-16T12:52:36;23.30;99.90
24645;DHT22;12780;45.502;9.146;2022-10-16T12:55:03;23.20;99.90
24645;DHT22;12780;45.502;9.146;2022-10-16T13:00:26;23.20;99.90
24645;DHT22;12780;45.502;9.146;2022-10-16T13:03:21;23.20;99.90
24645;DHT22;12780;45.502;9.146;2022-10-16T13:09:08;23.20;99.90
24645;DHT22;12780;45.502;9.146;2022-10-16T13:23:12;23.20;99.90
24645;DHT22;12780;45.502;9.146;2022-10-16T13:28:12;23.20;99.90
24645;DHT22;12780;45.502;9.146;2022-10-16T13:30:51;23.20;99.90
24645;DHT22;12780;45.502;9.146;2022-10-16T13:33:32;23.10;99.90
24645;DHT22;12780;45.502;9.146;2022-10-16T13:35:59;23.10;99.90
24645;DHT22;12780;45.502;9.146;2022-10-16T13:38:35;23.10;99.90
24645;DHT22;12780;45.502;9.146;2022-10-16T13:41:06;23.20;99.90
24645;DHT22;12780;45.502;9.146;2022-10-16T13:43:48;23.20;99.90
24645;DHT22;12780;45.502;9.146;2022-10-16T13:46:17;23.30;99.90
24645;DHT22;12780;45.502;9.146;2022-10-16T13:48:44;23.40;99.90
24645;DHT22;12780;45.502;9.146;2022-10-16T13:51:14;23.50;99.90
24645;DHT22;12780;45.502;9.146;2022-10-16T13:53:40;23.60;99.90
24645;DHT22;12780;45.502;9.146;2022-10-16T13:56:10;23.60;99.90
24645;DHT22;12780;45.502;9.146;2022-10-16T13:58:36;23.60;99.90
24645;DHT22;12780;45.502;9.146;2022-10-16T14:01:05;23.80;99.90
24645;DHT22;12780;45.502;9.146;2022-10-16T14:03:31;23.80;99.90
24645;DHT22;12780;45.502;9.146;2022-10-16T14:06:02;23.90;99.90
24645;DHT22;12780;45.502;9.146;2022-10-16T14:08:29;23.90;99.90
24645;DHT22;12780;45.502;9.146;2022-10-16T14:10:57;23.80;99.90
24645;DHT22;12780;45.502;9.146;2022-10-16T14:13:30;23.80;99.90
24645;DHT22;12780;45.502;9.146;2022-10-16T14:16:06;23.80;99.90
24645;DHT22;12780;45.502;9.146;2022-10-16T14:18:33;23.70;99.90
24645;DHT22;12780;45.502;9.146;2022-10-16T14:21:07;23.70;99.90
24645;DHT22;12780;45.502;9.146;2022-10-16T14:23:38;23.60;99.90
24645;DHT22;12780;45.502;9.146;2022-10-16T14:28:36;23.50;99.90
24645;DHT22;12780;45.502;9.146;2022-10-16T14:33:45;23.50;99.90
24645;DHT22;12780;45.502;9.146;2022-10-16T14:36:13;23.50;99.90
24645;DHT22;12780;45.502;9.146;2022-10-16T14:38:42;23.40;99.90
24645;DHT22;12780;45.502;9.146;2022-10-16T14:41:09;23.40;99.90
24645;DHT22;12780;45.502;9.146;2022-10-16T14:43:39;23.40;99.90
24645;DHT22;12780;45.502;9.146;2022-10-16T14:46:15;23.30;99.90
24645;DHT22;12780;45.502;9.146;2022-10-16T14:48:43;23.30;99.90
24645;DHT22;12780;45.502;9.146;2022-10-16T14:51:16;23.30;99.90
24645;DHT22;12780;45.502;9.146;2022-10-16T14:53:42;23.30;99.90
24645;DHT22;12780;45.502;9.146;2022-10-16T14:56:24;23.20;99.90
24645;DHT22;12780;45.502;9.146;2022-10-16T14:58:51;23.20;99.90
24645;DHT22;12780;45.502;9.146;2022-10-16T15:01:18;23.20;99.90
24645;DHT22;12780;45.502;9.146;2022-10-16T15:03:43;23.20;99.90
24645;DHT22;12780;45.502;9.146;2022-10-16T15:06:14;23.20;99.90
24645;DHT22;12780;45.502;9.146;2022-10-16T15:08:40;23.20;99.90
24645;DHT22;12780;45.502;9.146;2022-10-16T15:11:14;23.20;99.90
24645;DHT22;12780;45.502;9.146;2022-10-16T15:13:41;23.10;99.90
24645;DHT22;12780;45.502;9.146;2022-10-16T15:16:16;23.10;99.90
24645;DHT22;12780;45.502;9.146;2022-10-16T15:18:42;23.10;99.90
24645;DHT22;12780;45.502;9.146;2022-10-16T15:21:12;23.10;99.90
24645;DHT22;12780;45.502;9.146;2022-10-16T15:23:42;23.10;99.90
24645;DHT22;12780;45.502;9.146;2022-10-16T15:26:08;23.00;99.90
24645;DHT22;12780;45.502;9.146;2022-10-16T15:28:34;23.00;99.90
24645;DHT22;12780;45.502;9.146;2022-10-16T15:31:01;23.00;99.90
24645;DHT22;12780;45.502;9.146;2022-10-16T15:33:29;22.90;99.90
24645;DHT22;12780;45.502;9.146;2022-10-16T15:35:59;22.90;99.90
24645;DHT22;12780;45.502;9.146;2022-10-16T15:38:26;22.80;99.90
24645;DHT22;12780;45.502;9.146;2022-10-16T15:40:53;22.80;99.90
24645;DHT22;12780;45.502;9.146;2022-10-16T15:43:18;22.80;99.90
24645;DHT22;12780;45.502;9.146;2022-10-16T15:46:19;22.70;99.90
24645;DHT22;12780;45.502;9.146;2022-10-16T15:48:39;22.70;99.90
24645;DHT22;12780;45.502;9.146;2022-10-16T15:51:07;22.60;99.90
24645;DHT22;12780;45.502;9.146;2022-10-16T15:53:33;22.50;99.90
24645;DHT22;12780;45.502;9.146;2022-10-16T15:56:06;22.50;99.90
24645;DHT22;12780;45.502;9.146;2022-10-16T15:58:32;22.40;99.90
24645;DHT22;12780;45.502;9.146;2022-10-16T16:00:59;22.30;99.90
24645;DHT22;12780;45.502;9.146;2022-10-16T16:03:30;22.30;99.90
24645;DHT22;12780;45.502;9.146;2022-10-16T16:05:56;22.20;99.90
24645;DHT22;12780;45.502;9.146;2022-10-16T16:08:22;22.20;99.90
24645;DHT22;12780;45.502;9.146;2022-10-16T16:10:59;22.10;99.90
24645;DHT22;12780;45.502;9.146;2022-10-16T16:13:24;22.10;99.90
24645;DHT22;12780;45.502;9.146;2022-10-16T16:15:50;22.00;99.90
24645;DHT22;12780;45.502;9.146;2022-10-16T16:18:16;22.00;99.90
24645;DHT22;12780;45.502;9.146;2022-10-16T16:20:41;21.90;99.90
24645;DHT22;12780;45.502;9.146;2022-10-16T16:23:07;21.80;99.90
24645;DHT22;12780;45.502;9.146;2022-10-16T16:25:32;21.80;99.90
24645;DHT22;12780;45.502;9.146;2022-10-16T16:27:58;21.70;99.90
24645;DHT22;12780;45.502;9.146;2022-10-16T16:30:24;21.60;99.90
24645;DHT22;12780;45.502;9.146;2022-10-16T16:32:49;21.60;99.90
24645;DHT22;12780;45.502;9.146;2022-10-16T16:35:15;21.50;99.90
24645;DHT22;12780;45.502;9.146;2022-10-16T16:37:40;21.50;99.90
24645;DHT22;12780;45.502;9.146;2022-10-16T16:40:06;21.40;99.90
24645;DHT22;12780;45.502;9.146;2022-10-16T16:42:32;21.40;99.90
24645;DHT22;12780;45.502;9.146;2022-10-16T16:44:57;21.30;99.90
24645;DHT22;12780;45.502;9.146;2022-10-16T16:47:23;21.30;99.90
24645;DHT22;12780;45.502;9.146;2022-10-16T16:49:49;21.20;99.90
24645;DHT22;12780;45.502;9.146;2022-10-16T16:52:14;21.20;99.90
24645;DHT22;12780;45.502;9.146;2022-10-16T16:54:40;21.10;99.90
24645;DHT22;12780;45.502;9.146;2022-10-16T16:57:05;21.10;99.90
24645;DHT22;12780;45.502;9.146;2022-10-16T16:59:31;21.10;99.90
24645;DHT22;12780;45.502;9.146;2022-10-16T17:01:59;21.00;99.90
24645;DHT22;12780;45.502;9.146;2022-10-16T17:04:25;21.00;99.90
24645;DHT22;12780;45.502;9.146;2022-10-16T17:06:53;20.90;99.90
24645;DHT22;12780;45.502;9.146;2022-10-16T17:09:20;20.90;99.90